sensor_id;sensor_type;location;lat;lon;timestamp;P1;durP1;ratioP1;P2;durP2;ratioP2
49828;SDS011;35723;51.194;5.112;2022-09-24T00:00:43;8.70;;;4.85;;
49828;SDS011;35723;51.194;5.112;2022-09-24T00:03:10;8.60;;;4.90;;
49828;SDS011;35723;51.194;5.112;2022-09-24T00:05:36;9.80;;;5.13;;
49828;SDS011;35723;51.194;5.112;2022-09-24T00:08:04;8.77;;;5.10;;
49828;SDS011;35723;51.194;5.112;2022-09-24T00:10:36;10.70;;;5.35;;
49828;SDS011;35723;51.194;5.112;2022-09-24T00:13:06;10.27;;;5.40;;
49828;SDS011;35723;51.194;5.112;2022-09-24T00:15:41;9.90;;;5.18;;
49828;SDS011;35723;51.194;5.112;2022-09-24T00:18:08;9.45;;;4.93;;
49828;SDS011;35723;51.194;5.112;2022-09-24T00:20:36;9.98;;;5.32;;
49828;SDS011;35723;51.194;5.112;2022-09-24T00:23:03;10.18;;;5.07;;
49828;SDS011;35723;51.194;5.112;2022-09-24T00:25:29;8.55;;;5.07;;
49828;SDS011;35723;51.194;5.112;2022-09-24T00:28:14;9.25;;;5.22;;
49828;SDS011;35723;51.194;5.112;2022-09-24T00:30:40;7.40;;;4.60;;
49828;SDS011;35723;51.194;5.112;2022-09-24T00:33:07;8.75;;;4.97;;
49828;SDS011;35723;51.194;5.112;2022-09-24T00:35:34;9.05;;;5.30;;
49828;SDS011;35723;51.194;5.112;2022-09-24T00:38:01;9.38;;;5.18;;
49828;SDS011;35723;51.194;5.112;2022-09-24T00:40:30;9.30;;;5.30;;
49828;SDS011;35723;51.194;5.112;2022-09-24T00:42:57;8.60;;;4.78;;
49828;SDS011;35723;51.194;5.112;2022-09-24T00:45:23;9.20;;;5.30;;
49828;SDS011;35723;51.194;5.112;2022-09-24T00:47:50;9.18;;;5.20;;
49828;SDS011;35723;51.194;5.112;2022-09-24T00:50:33;10.55;;;5.65;;
49828;SDS011;35723;51.194;5.112;2022-09-24T00:53:00;8.60;;;4.82;;
49828;SDS011;35723;51.194;5.112;2022-09-24T00:55:34;8.82;;;5.00;;
49828;SDS011;35723;51.194;5.112;2022-09-24T00:58:02;8.88;;;5.05;;
49828;SDS011;35723;51.194;5.112;2022-09-24T01:00:30;8.45;;;5.00;;
49828;SDS011;35723;51.194;5.112;2022-09-24T01:03:04;8.52;;;4.97;;
49828;SDS011;35723;51.194;5.112;2022-09-24T01:05:37;9.73;;;5.28;;
49828;SDS011;35723;51.194;5.112;2022-09-24T01:08:05;9.45;;;5.03;;
49828;SDS011;35723;51.194;5.112;2022-09-24T01:10:50;9.05;;;5.03;;
49828;SDS011;35723;51.194;5.112;2022-09-24T01:16:16;9.23;;;5.40;;
49828;SDS011;35723;51.194;5.112;2022-09-24T01:27:26;9.20;;;5.18;;
49828;SDS011;35723;51.194;5.112;2022-09-24T01:30:11;8.90;;;5.00;;
49828;SDS011;35723;51.194;5.112;2022-09-24T01:32:47;9.52;;;5.25;;
49828;SDS011;35723;51.194;5.112;2022-09-24T01:35:19;8.30;;;4.93;;
49828;SDS011;35723;51.194;5.112;2022-09-24T01:38:00;9.32;;;5.35;;
49828;SDS011;35723;51.194;5.112;2022-09-24T01:40:46;8.77;;;5.00;;
49828;SDS011;35723;51.194;5.112;2022-09-24T01:43:14;8.48;;;4.78;;
49828;SDS011;35723;51.194;5.112;2022-09-24T01:45:42;9.20;;;5.10;;
49828;SDS011;35723;51.194;5.112;2022-09-24T01:48:08;9.48;;;5.22;;
49828;SDS011;35723;51.194;5.112;2022-09-24T01:50:45;9.20;;;4.95;;
49828;SDS011;35723;51.194;5.112;2022-09-24T01:53:18;9.10;;;4.97;;
49828;SDS011;35723;51.194;5.112;2022-09-24T01:55:48;10.80;;;5.30;;
49828;SDS011;35723;51.194;5.112;2022-09-24T01:58:19;8.25;;;4.90;;
49828;SDS011;35723;51.194;5.112;2022-09-24T02:00:51;8.90;;;5.07;;
49828;SDS011;35723;51.194;5.112;2022-09-24T02:03:26;8.43;;;4.85;;
49828;SDS011;35723;51.194;5.112;2022-09-24T02:05:59;9.93;;;5.20;;
49828;SDS011;35723;51.194;5.112;2022-09-24T02:08:33;9.38;;;5.15;;
49828;SDS011;35723;51.194;5.112;2022-09-24T02:11:07;8.75;;;5.00;;
49828;SDS011;35723;51.194;5.112;2022-09-24T02:13:57;10.40;;;5.07;;
49828;SDS011;35723;51.194;5.112;2022-09-24T02:16:35;9.45;;;5.13;;
49828;SDS011;35723;51.194;5.112;2022-09-24T02:19:23;9.35;;;5.05;;
49828;SDS011;35723;51.194;5.112;2022-09-24T02:21:52;9.68;;;5.15;;
49828;SDS011;35723;51.194;5.112;2022-09-24T02:24:19;8.52;;;4.93;;
49828;SDS011;35723;51.194;5.112;2022-09-24T02:26:48;9.57;;;5.10;;
49828;SDS011;35723;51.194;5.112;2022-09-24T02:29:14;8.43;;;4.93;;
49828;SDS011;35723;51.194;5.112;2022-09-24T02:31:43;8.15;;;4.70;;
49828;SDS011;35723;51.194;5.112;2022-09-24T02:34:14;8.65;;;5.00;;
49828;SDS011;35723;51.194;5.112;2022-09-24T02:36:48;8.25;;;4.75;;
49828;SDS011;35723;51.194;5.112;2022-09-24T02:39:16;8.57;;;5.00;;
49828;SDS011;35723;51.194;5.112;2022-09-24T02:41:46;9.50;;;5.00;;
49828;SDS011;35723;51.194;5.112;2022-09-24T02:44:16;8.98;;;4.70;;
49828;SDS011;35723;51.194;5.112;2022-09-24T02:46:43;8.18;;;4.75;;
49828;SDS011;35723;51.194;5.112;2022-09-24T02:49:10;8.98;;;4.97;;
49828;SDS011;35723;51.194;5.112;2022-09-24T02:51:37;9.65;;;5.05;;
49828;SDS011;35723;51.194;5.112;2022-09-24T02:54:03;8.95;;;4.82;;
49828;SDS011;35723;51.194;5.112;2022-09-24T02:56:29;9.80;;;5.07;;
49828;SDS011;35723;51.194;5.112;2022-09-24T02:58:55;7.85;;;4.50;;
49828;SDS011;35723;51.194;5.112;2022-09-24T03:01:22;9.93;;;4.75;;
49828;SDS011;35723;51.194;5.112;2022-09-24T03:03:48;7.78;;;4.60;;
49828;SDS011;35723;51.194;5.112;2022-09-24T03:06:15;8.43;;;4.80;;
49828;SDS011;35723;51.194;5.112;2022-09-24T03:08:41;8.25;;;4.65;;
49828;SDS011;35723;51.194;5.112;2022-09-24T03:11:07;8.93;;;4.72;;
49828;SDS011;35723;51.194;5.112;2022-09-24T03:13:34;10.10;;;4.80;;
49828;SDS011;35723;51.194;5.112;2022-09-24T03:16:00;8.02;;;4.95;;
49828;SDS011;35723;51.194;5.112;2022-09-24T03:18:26;8.80;;;4.90;;
49828;SDS011;35723;51.194;5.112;2022-09-24T03:20:58;8.50;;;4.70;;
49828;SDS011;35723;51.194;5.112;2022-09-24T03:23:25;8.85;;;4.80;;
49828;SDS011;35723;51.194;5.112;2022-09-24T03:25:51;8.75;;;4.50;;
49828;SDS011;35723;51.194;5.112;2022-09-24T03:28:17;7.47;;;4.60;;
49828;SDS011;35723;51.194;5.112;2022-09-24T03:30:43;9.88;;;4.80;;
49828;SDS011;35723;51.194;5.112;2022-09-24T03:33:34;8.63;;;4.78;;
49828;SDS011;35723;51.194;5.112;2022-09-24T03:36:19;7.78;;;4.57;;
49828;SDS011;35723;51.194;5.112;2022-09-24T03:38:47;7.60;;;4.60;;
49828;SDS011;35723;51.194;5.112;2022-09-24T03:41:15;9.35;;;4.90;;
49828;SDS011;35723;51.194;5.112;2022-09-24T03:43:41;7.60;;;4.68;;
49828;SDS011;35723;51.194;5.112;2022-09-24T03:46:07;8.15;;;4.57;;
49828;SDS011;35723;51.194;5.112;2022-09-24T03:48:34;7.47;;;4.40;;
49828;SDS011;35723;51.194;5.112;2022-09-24T03:51:05;7.45;;;4.32;;
49828;SDS011;35723;51.194;5.112;2022-09-24T03:53:32;8.10;;;4.55;;
49828;SDS011;35723;51.194;5.112;2022-09-24T03:55:58;8.18;;;4.70;;
49828;SDS011;35723;51.194;5.112;2022-09-24T03:58:26;7.28;;;4.35;;
49828;SDS011;35723;51.194;5.112;2022-09-24T04:00:53;8.23;;;4.72;;
49828;SDS011;35723;51.194;5.112;2022-09-24T04:03:19;9.02;;;4.47;;
49828;SDS011;35723;51.194;5.112;2022-09-24T04:05:46;8.13;;;4.15;;
49828;SDS011;35723;51.194;5.112;2022-09-24T04:08:12;8.30;;;4.47;;
49828;SDS011;35723;51.194;5.112;2022-09-24T04:10:38;7.18;;;4.60;;
49828;SDS011;35723;51.194;5.112;2022-09-24T04:13:04;8.80;;;4.70;;
49828;SDS011;35723;51.194;5.112;2022-09-24T04:15:29;7.75;;;4.55;;
49828;SDS011;35723;51.194;5.112;2022-09-24T04:17:57;6.85;;;4.15;;
49828;SDS011;35723;51.194;5.112;2022-09-24T04:20:27;7.75;;;4.40;;
49828;SDS011;35723;51.194;5.112;2022-09-24T04:22:54;8.63;;;4.63;;
49828;SDS011;35723;51.194;5.112;2022-09-24T04:25:21;9.15;;;4.80;;
49828;SDS011;35723;51.194;5.112;2022-09-24T04:27:52;9.32;;;4.90;;
49828;SDS011;35723;51.194;5.112;2022-09-24T04:30:19;6.88;;;4.47;;
49828;SDS011;35723;51.194;5.112;2022-09-24T04:32:45;6.55;;;4.13;;
49828;SDS011;35723;51.194;5.112;2022-09-24T04:35:10;8.00;;;4.50;;
49828;SDS011;35723;51.194;5.112;2022-09-24T04:37:36;8.75;;;4.50;;
49828;SDS011;35723;51.194;5.112;2022-09-24T04:40:05;7.78;;;4.43;;
49828;SDS011;35723;51.194;5.112;2022-09-24T04:42:36;9.07;;;4.85;;
49828;SDS011;35723;51.194;5.112;2022-09-24T04:45:03;7.78;;;4.13;;
49828;SDS011;35723;51.194;5.112;2022-09-24T04:47:30;6.95;;;4.28;;
49828;SDS011;35723;51.194;5.112;2022-09-24T04:49:55;8.02;;;4.50;;
49828;SDS011;35723;51.194;5.112;2022-09-24T04:52:21;7.82;;;4.68;;
49828;SDS011;35723;51.194;5.112;2022-09-24T04:54:50;8.00;;;4.25;;
49828;SDS011;35723;51.194;5.112;2022-09-24T04:57:16;8.73;;;4.70;;
49828;SDS011;35723;51.194;5.112;2022-09-24T04:59:42;7.07;;;4.30;;
49828;SDS011;35723;51.194;5.112;2022-09-24T05:02:08;7.78;;;4.35;;
49828;SDS011;35723;51.194;5.112;2022-09-24T05:04:34;8.40;;;4.60;;
49828;SDS011;35723;51.194;5.112;2022-09-24T05:07:00;8.18;;;4.38;;
49828;SDS011;35723;51.194;5.112;2022-09-24T05:09:26;7.43;;;4.30;;
49828;SDS011;35723;51.194;5.112;2022-09-24T05:11:51;7.68;;;4.60;;
49828;SDS011;35723;51.194;5.112;2022-09-24T05:14:17;7.85;;;4.30;;
49828;SDS011;35723;51.194;5.112;2022-09-24T05:16:43;7.40;;;4.18;;
49828;SDS011;35723;51.194;5.112;2022-09-24T05:19:08;6.68;;;3.97;;
49828;SDS011;35723;51.194;5.112;2022-09-24T05:21:34;8.10;;;4.55;;
49828;SDS011;35723;51.194;5.112;2022-09-24T05:24:00;7.40;;;4.20;;
49828;SDS011;35723;51.194;5.112;2022-09-24T05:26:25;6.53;;;4.15;;
49828;SDS011;35723;51.194;5.112;2022-09-24T05:29:09;6.82;;;4.32;;
49828;SDS011;35723;51.194;5.112;2022-09-24T05:31:35;7.90;;;4.25;;
49828;SDS011;35723;51.194;5.112;2022-09-24T05:34:01;6.68;;;3.95;;
49828;SDS011;35723;51.194;5.112;2022-09-24T05:36:27;6.18;;;3.97;;
49828;SDS011;35723;51.194;5.112;2022-09-24T05:38:53;6.68;;;4.20;;
49828;SDS011;35723;51.194;5.112;2022-09-24T05:41:19;7.07;;;4.32;;
49828;SDS011;35723;51.194;5.112;2022-09-24T05:43:45;7.25;;;4.05;;
49828;SDS011;35723;51.194;5.112;2022-09-24T05:46:11;8.60;;;4.35;;
49828;SDS011;35723;51.194;5.112;2022-09-24T05:48:36;7.70;;;4.40;;
49828;SDS011;35723;51.194;5.112;2022-09-24T05:51:02;7.00;;;4.10;;
49828;SDS011;35723;51.194;5.112;2022-09-24T05:53:29;7.38;;;4.20;;
49828;SDS011;35723;51.194;5.112;2022-09-24T05:55:55;7.15;;;4.15;;
49828;SDS011;35723;51.194;5.112;2022-09-24T05:58:22;6.15;;;4.13;;
49828;SDS011;35723;51.194;5.112;2022-09-24T06:00:48;7.72;;;4.53;;
49828;SDS011;35723;51.194;5.112;2022-09-24T06:03:15;7.15;;;4.10;;
49828;SDS011;35723;51.194;5.112;2022-09-24T06:05:42;6.97;;;4.00;;
49828;SDS011;35723;51.194;5.112;2022-09-24T06:08:10;8.40;;;4.18;;
49828;SDS011;35723;51.194;5.112;2022-09-24T06:10:36;7.15;;;4.00;;
49828;SDS011;35723;51.194;5.112;2022-09-24T06:13:02;7.30;;;4.18;;
49828;SDS011;35723;51.194;5.112;2022-09-24T06:15:28;7.40;;;4.30;;
49828;SDS011;35723;51.194;5.112;2022-09-24T06:17:55;7.93;;;4.40;;
49828;SDS011;35723;51.194;5.112;2022-09-24T06:20:21;7.82;;;4.32;;
49828;SDS011;35723;51.194;5.112;2022-09-24T06:22:47;7.32;;;4.05;;
49828;SDS011;35723;51.194;5.112;2022-09-24T06:25:13;6.72;;;4.10;;
49828;SDS011;35723;51.194;5.112;2022-09-24T06:27:39;6.55;;;3.92;;
49828;SDS011;35723;51.194;5.112;2022-09-24T06:30:04;6.50;;;4.07;;
49828;SDS011;35723;51.194;5.112;2022-09-24T06:32:31;6.63;;;4.10;;
49828;SDS011;35723;51.194;5.112;2022-09-24T06:34:56;7.63;;;4.10;;
49828;SDS011;35723;51.194;5.112;2022-09-24T06:37:22;6.90;;;4.03;;
49828;SDS011;35723;51.194;5.112;2022-09-24T06:39:48;5.75;;;3.70;;
49828;SDS011;35723;51.194;5.112;2022-09-24T06:42:13;6.53;;;4.07;;
49828;SDS011;35723;51.194;5.112;2022-09-24T06:44:39;6.43;;;3.72;;
49828;SDS011;35723;51.194;5.112;2022-09-24T06:47:06;7.97;;;4.20;;
49828;SDS011;35723;51.194;5.112;2022-09-24T06:49:32;5.93;;;3.60;;
49828;SDS011;35723;51.194;5.112;2022-09-24T06:51:57;6.13;;;3.88;;
49828;SDS011;35723;51.194;5.112;2022-09-24T06:54:23;7.25;;;4.10;;
49828;SDS011;35723;51.194;5.112;2022-09-24T06:56:49;6.15;;;3.72;;
49828;SDS011;35723;51.194;5.112;2022-09-24T06:59:16;6.72;;;3.80;;
49828;SDS011;35723;51.194;5.112;2022-09-24T07:01:42;7.57;;;3.88;;
49828;SDS011;35723;51.194;5.112;2022-09-24T07:04:08;7.13;;;4.18;;
49828;SDS011;35723;51.194;5.112;2022-09-24T07:06:35;7.05;;;3.85;;
49828;SDS011;35723;51.194;5.112;2022-09-24T07:09:19;7.25;;;4.10;;
49828;SDS011;35723;51.194;5.112;2022-09-24T07:11:45;7.03;;;4.13;;
49828;SDS011;35723;51.194;5.112;2022-09-24T07:14:11;7.18;;;4.13;;
49828;SDS011;35723;51.194;5.112;2022-09-24T07:16:37;7.30;;;3.85;;
49828;SDS011;35723;51.194;5.112;2022-09-24T07:19:03;7.30;;;4.00;;
49828;SDS011;35723;51.194;5.112;2022-09-24T07:21:29;6.60;;;4.00;;
49828;SDS011;35723;51.194;5.112;2022-09-24T07:23:55;7.78;;;3.90;;
49828;SDS011;35723;51.194;5.112;2022-09-24T07:26:20;5.97;;;3.70;;
49828;SDS011;35723;51.194;5.112;2022-09-24T07:28:46;6.25;;;3.90;;
49828;SDS011;35723;51.194;5.112;2022-09-24T07:31:12;7.50;;;3.80;;
49828;SDS011;35723;51.194;5.112;2022-09-24T07:33:37;5.90;;;3.58;;
49828;SDS011;35723;51.194;5.112;2022-09-24T07:36:03;5.57;;;3.63;;
49828;SDS011;35723;51.194;5.112;2022-09-24T07:38:33;6.38;;;3.88;;
49828;SDS011;35723;51.194;5.112;2022-09-24T07:41:00;5.65;;;3.60;;
49828;SDS011;35723;51.194;5.112;2022-09-24T07:43:30;6.45;;;4.00;;
49828;SDS011;35723;51.194;5.112;2022-09-24T07:45:57;6.00;;;3.67;;
49828;SDS011;35723;51.194;5.112;2022-09-24T07:48:22;6.80;;;4.10;;
49828;SDS011;35723;51.194;5.112;2022-09-24T07:50:48;7.03;;;3.88;;
49828;SDS011;35723;51.194;5.112;2022-09-24T07:53:15;7.20;;;3.85;;
49828;SDS011;35723;51.194;5.112;2022-09-24T07:55:41;5.65;;;3.63;;
49828;SDS011;35723;51.194;5.112;2022-09-24T07:58:07;6.32;;;3.78;;
49828;SDS011;35723;51.194;5.112;2022-09-24T08:00:36;6.88;;;3.95;;
49828;SDS011;35723;51.194;5.112;2022-09-24T08:03:02;6.47;;;3.78;;
49828;SDS011;35723;51.194;5.112;2022-09-24T08:05:28;6.95;;;3.70;;
49828;SDS011;35723;51.194;5.112;2022-09-24T08:07:54;6.30;;;3.78;;
49828;SDS011;35723;51.194;5.112;2022-09-24T08:10:21;7.00;;;3.90;;
49828;SDS011;35723;51.194;5.112;2022-09-24T08:12:48;5.97;;;3.70;;
49828;SDS011;35723;51.194;5.112;2022-09-24T08:15:14;6.13;;;3.90;;
49828;SDS011;35723;51.194;5.112;2022-09-24T08:17:40;5.90;;;3.70;;
49828;SDS011;35723;51.194;5.112;2022-09-24T08:20:06;6.93;;;3.95;;
49828;SDS011;35723;51.194;5.112;2022-09-24T08:22:32;5.35;;;3.58;;
49828;SDS011;35723;51.194;5.112;2022-09-24T08:24:58;6.93;;;3.85;;
49828;SDS011;35723;51.194;5.112;2022-09-24T08:27:24;7.80;;;4.20;;
49828;SDS011;35723;51.194;5.112;2022-09-24T08:29:50;5.85;;;3.60;;
49828;SDS011;35723;51.194;5.112;2022-09-24T08:32:16;6.18;;;3.70;;
49828;SDS011;35723;51.194;5.112;2022-09-24T08:34:42;6.13;;;3.83;;
49828;SDS011;35723;51.194;5.112;2022-09-24T08:37:09;6.40;;;3.78;;
49828;SDS011;35723;51.194;5.112;2022-09-24T08:39:36;5.47;;;3.47;;
49828;SDS011;35723;51.194;5.112;2022-09-24T08:42:03;7.47;;;3.90;;
49828;SDS011;35723;51.194;5.112;2022-09-24T08:44:35;6.32;;;3.72;;
49828;SDS011;35723;51.194;5.112;2022-09-24T08:47:35;6.07;;;3.80;;
49828;SDS011;35723;51.194;5.112;2022-09-24T08:50:05;6.70;;;3.90;;
49828;SDS011;35723;51.194;5.112;2022-09-24T08:57:47;6.18;;;3.80;;
49828;SDS011;35723;51.194;5.112;2022-09-24T09:00:31;7.57;;;4.20;;
49828;SDS011;35723;51.194;5.112;2022-09-24T09:03:05;6.30;;;3.92;;
49828;SDS011;35723;51.194;5.112;2022-09-24T09:09:07;7.18;;;4.25;;
49828;SDS011;35723;51.194;5.112;2022-09-24T09:11:47;7.40;;;4.10;;
49828;SDS011;35723;51.194;5.112;2022-09-24T09:20:06;7.25;;;3.88;;
49828;SDS011;35723;51.194;5.112;2022-09-24T09:22:47;8.65;;;4.22;;
49828;SDS011;35723;51.194;5.112;2022-09-24T09:25:22;6.55;;;4.10;;
49828;SDS011;35723;51.194;5.112;2022-09-24T09:27:58;6.60;;;3.80;;
49828;SDS011;35723;51.194;5.112;2022-09-24T09:33:54;6.00;;;3.90;;
49828;SDS011;35723;51.194;5.112;2022-09-24T09:41:47;6.63;;;4.07;;
49828;SDS011;35723;51.194;5.112;2022-09-24T09:44:27;8.45;;;4.35;;
49828;SDS011;35723;51.194;5.112;2022-09-24T09:49:40;7.22;;;4.20;;
49828;SDS011;35723;51.194;5.112;2022-09-24T09:52:18;6.70;;;4.10;;
49828;SDS011;35723;51.194;5.112;2022-09-24T09:54:45;7.10;;;3.97;;
49828;SDS011;35723;51.194;5.112;2022-09-24T09:57:15;7.88;;;4.22;;
49828;SDS011;35723;51.194;5.112;2022-09-24T09:59:49;7.15;;;3.92;;
49828;SDS011;35723;51.194;5.112;2022-09-24T10:04:56;8.00;;;4.13;;
49828;SDS011;35723;51.194;5.112;2022-09-24T10:07:23;8.23;;;4.22;;
49828;SDS011;35723;51.194;5.112;2022-09-24T10:09:59;7.25;;;4.35;;
49828;SDS011;35723;51.194;5.112;2022-09-24T10:12:41;7.20;;;4.07;;
49828;SDS011;35723;51.194;5.112;2022-09-24T10:17:38;7.17;;;4.00;;
49828;SDS011;35723;51.194;5.112;2022-09-24T10:20:12;6.78;;;4.00;;
49828;SDS011;35723;51.194;5.112;2022-09-24T10:22:49;7.53;;;4.07;;
49828;SDS011;35723;51.194;5.112;2022-09-24T10:25:18;7.15;;;3.90;;
49828;SDS011;35723;51.194;5.112;2022-09-24T10:27:48;6.53;;;4.00;;
49828;SDS011;35723;51.194;5.112;2022-09-24T10:30:15;6.97;;;4.18;;
49828;SDS011;35723;51.194;5.112;2022-09-24T10:33:02;7.60;;;4.22;;
49828;SDS011;35723;51.194;5.112;2022-09-24T10:35:33;8.48;;;3.95;;
49828;SDS011;35723;51.194;5.112;2022-09-24T10:38:12;7.60;;;4.10;;
49828;SDS011;35723;51.194;5.112;2022-09-24T10:40:43;8.20;;;4.25;;
49828;SDS011;35723;51.194;5.112;2022-09-24T10:43:14;6.78;;;4.00;;
49828;SDS011;35723;51.194;5.112;2022-09-24T10:51:45;7.82;;;4.38;;
49828;SDS011;35723;51.194;5.112;2022-09-24T11:00:16;7.80;;;4.10;;
49828;SDS011;35723;51.194;5.112;2022-09-24T11:11:13;6.88;;;4.07;;
49828;SDS011;35723;51.194;5.112;2022-09-24T11:27:55;7.13;;;4.20;;
49828;SDS011;35723;51.194;5.112;2022-09-24T11:38:38;6.95;;;3.85;;
49828;SDS011;35723;51.194;5.112;2022-09-24T11:52:11;7.15;;;3.90;;
49828;SDS011;35723;51.194;5.112;2022-09-24T11:57:36;7.38;;;3.95;;
49828;SDS011;35723;51.194;5.112;2022-09-24T12:00:10;6.88;;;3.67;;
49828;SDS011;35723;51.194;5.112;2022-09-24T12:07:56;6.25;;;3.80;;
49828;SDS011;35723;51.194;5.112;2022-09-24T12:11:17;6.07;;;3.85;;
49828;SDS011;35723;51.194;5.112;2022-09-24T12:13:46;7.13;;;3.90;;
49828;SDS011;35723;51.194;5.112;2022-09-24T12:16:22;6.65;;;4.00;;
49828;SDS011;35723;51.194;5.112;2022-09-24T12:21:34;6.07;;;3.60;;
49828;SDS011;35723;51.194;5.112;2022-09-24T12:24:16;7.03;;;3.95;;
49828;SDS011;35723;51.194;5.112;2022-09-24T12:26:49;6.63;;;3.65;;
49828;SDS011;35723;51.194;5.112;2022-09-24T12:29:25;7.10;;;3.72;;
49828;SDS011;35723;51.194;5.112;2022-09-24T12:32:23;7.18;;;3.92;;
49828;SDS011;35723;51.194;5.112;2022-09-24T12:37:52;6.38;;;3.83;;
49828;SDS011;35723;51.194;5.112;2022-09-24T12:43:01;7.20;;;4.15;;
49828;SDS011;35723;51.194;5.112;2022-09-24T12:45:39;7.63;;;3.95;;
49828;SDS011;35723;51.194;5.112;2022-09-24T12:48:10;6.57;;;4.00;;
49828;SDS011;35723;51.194;5.112;2022-09-24T12:50:39;5.97;;;3.90;;
49828;SDS011;35723;51.194;5.112;2022-09-24T12:53:21;5.30;;;3.47;;
49828;SDS011;35723;51.194;5.112;2022-09-24T12:55:51;5.85;;;3.50;;
49828;SDS011;35723;51.194;5.112;2022-09-24T13:03:59;7.13;;;4.07;;
49828;SDS011;35723;51.194;5.112;2022-09-24T13:06:46;7.38;;;4.00;;
49828;SDS011;35723;51.194;5.112;2022-09-24T13:12:28;6.40;;;3.65;;
49828;SDS011;35723;51.194;5.112;2022-09-24T13:15:03;6.70;;;3.80;;
49828;SDS011;35723;51.194;5.112;2022-09-24T13:17:32;7.03;;;3.85;;
49828;SDS011;35723;51.194;5.112;2022-09-24T13:20:01;8.02;;;4.00;;
49828;SDS011;35723;51.194;5.112;2022-09-24T13:22:34;6.43;;;3.70;;
49828;SDS011;35723;51.194;5.112;2022-09-24T13:25:20;6.28;;;3.70;;
49828;SDS011;35723;51.194;5.112;2022-09-24T13:28:00;7.63;;;3.80;;
49828;SDS011;35723;51.194;5.112;2022-09-24T13:35:59;6.07;;;3.58;;
49828;SDS011;35723;51.194;5.112;2022-09-24T13:38:54;6.10;;;3.70;;
49828;SDS011;35723;51.194;5.112;2022-09-24T13:41:42;6.95;;;3.80;;
49828;SDS011;35723;51.194;5.112;2022-09-24T13:49:53;6.60;;;3.88;;
49828;SDS011;35723;51.194;5.112;2022-09-24T13:55:25;6.00;;;3.72;;
49828;SDS011;35723;51.194;5.112;2022-09-24T13:58:03;6.95;;;3.88;;
49828;SDS011;35723;51.194;5.112;2022-09-24T14:00:29;12.63;;;3.97;;
49828;SDS011;35723;51.194;5.112;2022-09-24T14:05:27;6.85;;;3.92;;
49828;SDS011;35723;51.194;5.112;2022-09-24T14:08:02;6.80;;;3.92;;
49828;SDS011;35723;51.194;5.112;2022-09-24T14:10:31;7.10;;;3.75;;
49828;SDS011;35723;51.194;5.112;2022-09-24T14:13:08;6.63;;;3.72;;
49828;SDS011;35723;51.194;5.112;2022-09-24T14:15:37;5.65;;;3.60;;
49828;SDS011;35723;51.194;5.112;2022-09-24T14:18:13;6.82;;;3.83;;
49828;SDS011;35723;51.194;5.112;2022-09-24T14:20:39;7.35;;;4.03;;
49828;SDS011;35723;51.194;5.112;2022-09-24T14:23:05;6.22;;;3.70;;
49828;SDS011;35723;51.194;5.112;2022-09-24T14:25:33;7.25;;;4.10;;
49828;SDS011;35723;51.194;5.112;2022-09-24T14:28:01;7.07;;;3.88;;
49828;SDS011;35723;51.194;5.112;2022-09-24T14:30:29;6.28;;;3.78;;
49828;SDS011;35723;51.194;5.112;2022-09-24T14:32:58;6.75;;;4.00;;
49828;SDS011;35723;51.194;5.112;2022-09-24T14:35:33;6.20;;;3.70;;
49828;SDS011;35723;51.194;5.112;2022-09-24T14:41:06;8.77;;;4.70;;
49828;SDS011;35723;51.194;5.112;2022-09-24T14:43:52;7.72;;;4.72;;
49828;SDS011;35723;51.194;5.112;2022-09-24T14:46:33;8.57;;;4.80;;
49828;SDS011;35723;51.194;5.112;2022-09-24T14:49:20;7.72;;;4.60;;
49828;SDS011;35723;51.194;5.112;2022-09-24T14:51:51;8.38;;;4.70;;
49828;SDS011;35723;51.194;5.112;2022-09-24T14:54:26;8.95;;;4.80;;
49828;SDS011;35723;51.194;5.112;2022-09-24T14:59:41;8.00;;;4.78;;
49828;SDS011;35723;51.194;5.112;2022-09-24T15:02:21;7.97;;;4.45;;
49828;SDS011;35723;51.194;5.112;2022-09-24T15:04:58;9.38;;;4.88;;
49828;SDS011;35723;51.194;5.112;2022-09-24T15:07:27;8.07;;;4.63;;
49828;SDS011;35723;51.194;5.112;2022-09-24T15:09:56;8.38;;;4.72;;
49828;SDS011;35723;51.194;5.112;2022-09-24T15:12:30;7.63;;;4.40;;
49828;SDS011;35723;51.194;5.112;2022-09-24T15:14:59;8.68;;;4.72;;
49828;SDS011;35723;51.194;5.112;2022-09-24T15:17:31;7.85;;;4.57;;
49828;SDS011;35723;51.194;5.112;2022-09-24T15:19:58;9.43;;;4.60;;
49828;SDS011;35723;51.194;5.112;2022-09-24T15:22:25;7.85;;;4.53;;
49828;SDS011;35723;51.194;5.112;2022-09-24T15:24:55;8.98;;;4.68;;
49828;SDS011;35723;51.194;5.112;2022-09-24T15:27:23;8.98;;;4.60;;
49828;SDS011;35723;51.194;5.112;2022-09-24T15:29:57;8.27;;;4.28;;
49828;SDS011;35723;51.194;5.112;2022-09-24T15:32:27;8.73;;;4.53;;
49828;SDS011;35723;51.194;5.112;2022-09-24T15:34:58;7.88;;;4.25;;
49828;SDS011;35723;51.194;5.112;2022-09-24T15:37:25;9.00;;;4.80;;
49828;SDS011;35723;51.194;5.112;2022-09-24T15:39:52;8.35;;;4.50;;
49828;SDS011;35723;51.194;5.112;2022-09-24T15:42:22;8.25;;;4.60;;
49828;SDS011;35723;51.194;5.112;2022-09-24T15:44:51;6.95;;;4.07;;
49828;SDS011;35723;51.194;5.112;2022-09-24T15:47:20;7.88;;;4.55;;
49828;SDS011;35723;51.194;5.112;2022-09-24T15:49:46;8.75;;;4.82;;
49828;SDS011;35723;51.194;5.112;2022-09-24T15:54:37;7.47;;;4.45;;
49828;SDS011;35723;51.194;5.112;2022-09-24T15:57:03;7.30;;;4.50;;
49828;SDS011;35723;51.194;5.112;2022-09-24T15:59:29;7.45;;;4.20;;
49828;SDS011;35723;51.194;5.112;2022-09-24T16:01:56;7.63;;;4.28;;
49828;SDS011;35723;51.194;5.112;2022-09-24T16:04:24;9.38;;;5.00;;
49828;SDS011;35723;51.194;5.112;2022-09-24T16:06:50;8.20;;;5.00;;
49828;SDS011;35723;51.194;5.112;2022-09-24T16:09:16;9.13;;;4.78;;
49828;SDS011;35723;51.194;5.112;2022-09-24T16:11:42;8.77;;;4.85;;
49828;SDS011;35723;51.194;5.112;2022-09-24T16:14:08;8.85;;;4.80;;
49828;SDS011;35723;51.194;5.112;2022-09-24T16:16:34;8.80;;;5.10;;
49828;SDS011;35723;51.194;5.112;2022-09-24T16:19:01;9.77;;;4.80;;
49828;SDS011;35723;51.194;5.112;2022-09-24T16:21:27;9.73;;;4.85;;
49828;SDS011;35723;51.194;5.112;2022-09-24T16:23:53;8.85;;;4.90;;
49828;SDS011;35723;51.194;5.112;2022-09-24T16:26:19;9.75;;;5.10;;
49828;SDS011;35723;51.194;5.112;2022-09-24T16:28:45;8.38;;;5.03;;
49828;SDS011;35723;51.194;5.112;2022-09-24T16:31:13;7.82;;;4.78;;
49828;SDS011;35723;51.194;5.112;2022-09-24T16:33:38;7.97;;;4.72;;
49828;SDS011;35723;51.194;5.112;2022-09-24T16:36:05;7.75;;;4.80;;
49828;SDS011;35723;51.194;5.112;2022-09-24T16:38:35;9.90;;;5.00;;
49828;SDS011;35723;51.194;5.112;2022-09-24T16:41:01;10.07;;;5.30;;
49828;SDS011;35723;51.194;5.112;2022-09-24T16:43:27;8.02;;;4.63;;
49828;SDS011;35723;51.194;5.112;2022-09-24T16:45:58;8.95;;;4.55;;
49828;SDS011;35723;51.194;5.112;2022-09-24T16:48:28;8.98;;;4.60;;
49828;SDS011;35723;51.194;5.112;2022-09-24T16:51:00;8.80;;;5.00;;
49828;SDS011;35723;51.194;5.112;2022-09-24T16:53:29;9.18;;;4.82;;
49828;SDS011;35723;51.194;5.112;2022-09-24T16:56:06;8.85;;;4.78;;
49828;SDS011;35723;51.194;5.112;2022-09-24T16:58:34;10.23;;;5.00;;
49828;SDS011;35723;51.194;5.112;2022-09-24T17:01:06;9.45;;;5.10;;
49828;SDS011;35723;51.194;5.112;2022-09-24T17:03:34;8.40;;;4.60;;
49828;SDS011;35723;51.194;5.112;2022-09-24T17:06:00;8.35;;;4.75;;
49828;SDS011;35723;51.194;5.112;2022-09-24T17:08:26;9.27;;;4.90;;
49828;SDS011;35723;51.194;5.112;2022-09-24T17:11:14;8.50;;;4.72;;
49828;SDS011;35723;51.194;5.112;2022-09-24T17:13:39;7.85;;;4.60;;
49828;SDS011;35723;51.194;5.112;2022-09-24T17:16:05;8.65;;;4.90;;
49828;SDS011;35723;51.194;5.112;2022-09-24T17:18:31;10.05;;;5.05;;
49828;SDS011;35723;51.194;5.112;2022-09-24T17:21:03;9.27;;;5.03;;
49828;SDS011;35723;51.194;5.112;2022-09-24T17:23:31;10.02;;;4.97;;
49828;SDS011;35723;51.194;5.112;2022-09-24T17:26:04;10.88;;;5.25;;
49828;SDS011;35723;51.194;5.112;2022-09-24T17:28:35;8.63;;;4.93;;
49828;SDS011;35723;51.194;5.112;2022-09-24T17:31:02;9.70;;;5.15;;